Time;durP1;ratioP1;P1;durP2;ratioP2;P2;SDS_P1;SDS_P2;PMS_P1;PMS_P2;Temp;Humidity;BMP_temperature;BMP_pressure;BME280_temperature;BME280_humidity;BME280_pressure;Samples;Min_cycle;Max_cycle;Signal;HPM_P1;HPM_P2
2023/03/20 00:02:20;;;;;;;24.80;17.40;;;;;;;10.26;56.47;100028.02;104714;1256;72074;-77
2023/03/20 00:04:49;;;;;;;27.90;17.80;;;;;;;10.26;56.87;100028.52;105246;1248;61691;-75
2023/03/20 00:07:18;;;;;;;27.40;17.20;;;;;;;10.25;56.27;100022.45;105153;1252;61519;-77
2023/03/20 00:09:48;;;;;;;26.40;17.70;;;;;;;10.30;55.38;100024.04;105332;1267;72523;-76
2023/03/20 00:12:20;;;;;;;24.10;17.50;;;;;;;10.23;55.36;100018.68;105206;1253;69220;-74
2023/03/20 00:14:50;;;;;;;29.10;17.50;;;;;;;10.20;55.74;100014.91;105247;1253;72176;-75
2023/03/20 00:17:19;;;;;;;24.90;17.50;;;;;;;10.19;56.05;100011.97;105205;1252;61730;-77
2023/03/20 00:19:55;;;;;;;23.70;17.30;;;;;;;10.28;55.83;100009.89;105280;1257;62254;-78
2023/03/20 00:22:23;;;;;;;25.10;17.70;;;;;;;10.21;55.66;100006.64;105196;1264;73588;-75
2023/03/20 00:24:53;;;;;;;23.80;17.90;;;;;;;10.18;55.95;100006.22;105271;1253;70024;-75
2023/03/20 00:27:24;;;;;;;22.00;17.50;;;;;;;10.16;55.73;100000.50;105532;1253;73042;-74
2023/03/20 00:29:57;;;;;;;24.60;17.50;;;;;;;10.09;56.03;99995.31;104748;1251;61797;-73
2023/03/20 00:32:25;;;;;;;23.60;17.30;;;;;;;10.06;55.94;99992.09;105274;1252;61710;-76
2023/03/20 00:35:00;;;;;;;24.60;17.00;;;;;;;10.02;56.40;99991.02;105065;1248;74080;-76
2023/03/20 00:37:29;;;;;;;24.40;17.90;;;;;;;10.02;55.75;99991.70;104658;1264;69699;-76
2023/03/20 00:39:58;;;;;;;25.30;17.70;;;;;;;10.00;55.66;99991.09;105141;1253;72964;-75
2023/03/20 00:42:27;;;;;;;22.00;16.60;;;;;;;10.00;55.82;99985.14;105126;1254;61688;-73
2023/03/20 00:44:58;;;;;;;25.50;17.60;;;;;;;9.96;56.07;99982.46;105187;1253;61585;-74
2023/03/20 00:47:27;;;;;;;27.30;17.80;;;;;;;9.94;56.52;99981.66;105116;1258;74001;-75
2023/03/20 00:49:56;;;;;;;24.60;17.40;;;;;;;9.86;57.02;99981.40;104708;1272;70508;-76
2023/03/20 00:52:26;;;;;;;25.00;17.70;;;;;;;9.93;57.16;99982.94;104774;1263;72838;-76
2023/03/20 00:54:54;;;;;;;24.50;17.50;;;;;;;9.87;57.42;99980.51;105278;1253;61702;-78
2023/03/20 00:57:27;;;;;;;23.70;16.60;;;;;;;9.94;57.20;99976.58;105147;1267;61715;-78
2023/03/20 01:00:05;;;;;;;23.70;16.90;;;;;;;9.93;56.58;99971.53;105031;1254;74891;-77
2023/03/20 01:02:35;;;;;;;26.00;17.10;;;;;;;9.87;56.16;99974.00;105220;1256;70493;-77
2023/03/20 01:05:04;;;;;;;22.50;16.90;;;;;;;9.84;56.25;99976.77;105261;1259;73131;-74
2023/03/20 01:07:33;;;;;;;23.30;16.40;;;;;;;9.78;56.15;99979.42;105391;1251;61701;-78
2023/03/20 01:10:04;;;;;;;27.50;16.80;;;;;;;9.81;55.23;99978.94;105018;1257;61626;-77
2023/03/20 01:12:32;;;;;;;26.40;17.80;;;;;;;9.77;55.46;99977.69;105247;1251;74410;-75
2023/03/20 01:15:01;;;;;;;23.00;16.70;;;;;;;9.71;55.46;99973.16;105171;1254;70180;-77
2023/03/20 01:17:29;;;;;;;23.60;18.00;;;;;;;9.66;54.90;99977.36;105151;1254;72672;-78
2023/03/20 01:19:58;;;;;;;23.80;16.70;;;;;;;9.70;54.44;99978.10;105447;1252;61701;-75
2023/03/20 01:22:26;;;;;;;23.80;16.40;;;;;;;9.67;54.77;99974.70;105224;1253;61615;-74
2023/03/20 01:24:55;;;;;;;24.30;16.90;;;;;;;9.63;54.00;99971.01;105260;1250;74399;-77
2023/03/20 01:27:23;;;;;;;23.50;16.50;;;;;;;9.63;53.59;99968.89;104974;1254;70104;-76
2023/03/20 01:29:52;;;;;;;21.60;16.00;;;;;;;9.61;53.38;99970.18;105284;1253;73221;-74
2023/03/20 01:32:20;;;;;;;22.20;15.90;;;;;;;9.64;53.63;99968.84;104936;1251;62286;-71
2023/03/20 01:34:51;;;;;;;19.90;15.80;;;;;;;9.71;52.97;99969.83;105050;1254;61758;-72
2023/03/20 01:37:24;;;;;;;19.60;14.70;;;;;;;9.67;53.07;99965.41;105131;1257;74139;-73
2023/03/20 01:39:54;;;;;;;22.20;16.10;;;;;;;9.70;52.47;99965.13;105076;1247;70249;-73
2023/03/20 01:42:23;;;;;;;22.90;15.90;;;;;;;9.65;52.21;99967.08;104846;1249;73301;-72
2023/03/20 01:44:52;;;;;;;19.90;15.30;;;;;;;9.57;52.68;99964.55;105149;1259;61739;-72
2023/03/20 01:47:22;;;;;;;18.60;14.70;;;;;;;9.59;53.43;99961.51;104767;1252;61586;-72
2023/03/20 01:50:21;;;;;;;18.90;14.70;;;;;;;9.58;53.40;99964.14;105169;1260;74496;-72
2023/03/20 01:53:00;;;;;;;20.20;14.60;;;;;;;9.53;53.09;99965.54;104886;1263;70462;-72
2023/03/20 01:55:29;;;;;;;22.60;14.60;;;;;;;9.49;53.46;99969.17;105142;1257;73803;-72
2023/03/20 01:58:05;;;;;;;21.10;15.30;;;;;;;9.49;53.79;99966.21;105121;1250;62080;-71
2023/03/20 02:00:35;;;;;;;21.80;15.70;;;;;;;9.47;55.23;99974.49;104845;1249;61650;-72
2023/03/20 02:03:05;;;;;;;22.30;16.40;;;;;;;9.49;56.50;99980.55;104790;1267;74191;-71
2023/03/20 02:05:54;;;;;;;24.10;14.70;;;;;;;9.49;56.45;99984.07;104804;1266;70722;-72
2023/03/20 02:08:30;;;;;;;20.10;15.20;;;;;;;9.45;55.93;99981.20;105394;1257;72914;-73
2023/03/20 02:11:02;;;;;;;20.50;15.10;;;;;;;9.46;55.58;99977.64;104870;1260;61710;-73
2023/03/20 02:13:31;;;;;;;21.60;15.50;;;;;;;9.45;54.37;99978.07;104959;1260;61093;-74
2023/03/20 02:16:12;;;;;;;21.50;15.10;;;;;;;9.44;53.87;99979.48;104760;1251;74642;-72
2023/03/20 02:18:55;;;;;;;19.00;14.20;;;;;;;9.36;54.54;99978.17;105153;1251;71200;-72
2023/03/20 02:21:59;;;;;;;22.90;15.70;;;;;;;9.30;54.11;99983.09;105399;1247;72914;-72
2023/03/20 02:24:43;;;;;;;21.50;15.40;;;;;;;9.32;54.22;99983.38;105106;1253;61718;-72
2023/03/20 02:27:30;;;;;;;21.40;16.20;;;;;;;9.29;53.70;99982.23;104986;1259;61601;-72
2023/03/20 02:30:34;;;;;;;20.10;14.90;;;;;;;9.22;54.10;99983.70;104852;1255;74199;-71
2023/03/20 02:33:22;;;;;;;19.80;14.80;;;;;;;9.22;54.16;99976.16;105032;1254;69813;-72
2023/03/20 02:36:15;;;;;;;21.30;15.50;;;;;;;9.16;54.12;99972.67;104840;1253;72925;-71
2023/03/20 02:39:14;;;;;;;17.60;13.70;;;;;;;9.19;54.21;99973.65;105200;1254;61785;-71
2023/03/20 02:41:46;;;;;;;19.40;13.90;;;;;;;9.16;55.75;99971.65;104737;1256;61744;-71
2023/03/20 02:44:36;;;;;;;23.80;15.80;;;;;;;9.23;55.35;99961.98;104834;1251;74401;-71
2023/03/20 02:47:48;;;;;;;19.80;15.10;;;;;;;9.23;55.21;99960.94;105167;1254;68989;-71
2023/03/20 02:50:39;;;;;;;22.00;14.50;;;;;;;9.18;55.69;99954.44;104822;1263;73213;-72
2023/03/20 02:53:44;;;;;;;18.80;14.80;;;;;;;9.14;54.68;99949.16;104946;1247;61720;-71
2023/03/20 02:56:53;;;;;;;22.60;15.30;;;;;;;9.12;54.21;99942.38;104709;1254;62031;-72
2023/03/20 02:59:49;;;;;;;21.60;15.60;;;;;;;9.09;53.80;99938.98;105022;1254;73778;-73
2023/03/20 03:02:20;;;;;;;24.50;16.00;;;;;;;9.13;53.97;99936.73;105210;1248;70026;-72
2023/03/20 03:04:52;;;;;;;20.60;15.30;;;;;;;9.12;54.07;99932.60;104855;1267;72684;-72
2023/03/20 03:07:23;;;;;;;21.40;16.30;;;;;;;9.07;54.18;99933.10;105139;1256;61621;-72
2023/03/20 03:09:58;;;;;;;21.20;15.40;;;;;;;9.06;54.29;99929.98;104903;1247;61636;-73
2023/03/20 03:12:29;;;;;;;22.30;15.80;;;;;;;9.05;53.36;99931.26;105228;1251;74632;-71
2023/03/20 03:15:04;;;;;;;24.20;16.10;;;;;;;8.92;54.86;99934.81;105299;1250;68262;-73
2023/03/20 03:17:33;;;;;;;22.20;15.90;;;;;;;8.98;54.49;99933.05;104868;1254;73219;-74
2023/03/20 03:20:14;;;;;;;20.50;16.20;;;;;;;8.99;53.86;99934.77;105173;1252;61698;-74
2023/03/20 03:22:42;;;;;;;23.20;16.00;;;;;;;8.99;56.50;99935.46;104761;1257;62210;-73
2023/03/20 03:25:12;;;;;;;24.80;17.60;;;;;;;9.06;57.42;99931.93;104758;1251;73760;-73
2023/03/20 03:27:43;;;;;;;21.00;16.20;;;;;;;9.09;57.27;99927.27;104994;1260;70021;-73
2023/03/20 03:30:24;;;;;;;24.00;16.50;;;;;;;9.12;56.08;99920.86;104995;1254;73069;-73
2023/03/20 03:33:18;;;;;;;25.00;17.40;;;;;;;9.19;57.12;99926.96;105213;1257;61696;-72
2023/03/20 03:38:01;;;;;;;24.70;16.50;;;;;;;8.34;66.68;99930.53;101846;1299;600686;-71
2023/03/20 03:40:58;;;;;;;23.50;17.30;;;;;;;9.32;56.90;99922.84;104146;1282;60378;-72
2023/03/20 03:44:14;;;;;;;25.20;17.00;;;;;;;9.41;56.71;99918.88;104194;1268;60503;-71
2023/03/20 03:46:55;;;;;;;21.80;15.50;;;;;;;9.45;56.01;99917.70;104078;1263;71469;-72
2023/03/20 03:49:26;;;;;;;21.00;15.80;;;;;;;9.38;54.79;99915.50;104209;1267;69828;-72
2023/03/20 03:51:59;;;;;;;26.60;17.50;;;;;;;9.35;54.86;99913.29;104139;1265;187993;-73
2023/03/20 03:54:35;;;;;;;24.40;16.20;;;;;;;9.39;55.40;99922.27;104232;1260;60446;-70
2023/03/20 03:57:44;;;;;;;25.00;17.70;;;;;;;9.46;56.58;99922.39;104122;1274;60475;-70
2023/03/20 04:00:17;;;;;;;23.10;17.20;;;;;;;9.50;55.97;99923.13;104243;1275;72344;-70
2023/03/20 04:02:49;;;;;;;26.50;18.50;;;;;;;9.48;55.36;99920.21;104281;1270;70147;-72
2023/03/20 04:05:30;;;;;;;24.60;17.50;;;;;;;9.48;55.73;99913.55;104215;1260;73283;-70
2023/03/20 04:08:02;;;;;;;25.10;17.60;;;;;;;9.43;54.58;99913.72;104229;1267;60935;-71
2023/03/20 04:10:30;;;;;;;22.50;17.10;;;;;;;9.34;54.62;99914.05;104232;1263;60777;-70
2023/03/20 04:13:01;;;;;;;22.50;16.80;;;;;;;9.33;55.04;99915.64;104233;1261;73358;-70
2023/03/20 04:15:33;;;;;;;24.10;17.80;;;;;;;9.32;54.76;99918.49;104194;1264;69803;-73
2023/03/20 04:18:03;;;;;;;25.50;18.80;;;;;;;9.36;54.95;99919.93;104239;1265;73553;-72
2023/03/20 04:20:32;;;;;;;25.00;16.90;;;;;;;9.38;54.82;99920.92;104273;1267;60799;-73
2023/03/20 04:23:01;;;;;;;24.90;17.40;;;;;;;9.37;54.46;99923.39;104368;1266;60905;-71
2023/03/20 04:25:35;;;;;;;26.30;18.10;;;;;;;9.38;54.45;99924.06;104323;1267;73762;-74
2023/03/20 04:28:04;;;;;;;23.80;17.30;;;;;;;9.38;54.89;99921.77;104184;1284;70483;-73
2023/03/20 04:30:57;;;;;;;26.80;18.50;;;;;;;9.35;54.60;99926.61;104294;1261;72526;-71
2023/03/20 04:33:35;;;;;;;25.40;18.00;;;;;;;9.33;54.65;99927.88;104274;1263;60783;-72
2023/03/20 04:36:13;;;;;;;24.40;18.40;;;;;;;9.31;55.33;99929.35;104382;1281;60912;-72
2023/03/20 04:38:42;;;;;;;26.70;18.50;;;;;;;9.33;55.80;99927.02;104159;1282;73400;-73
2023/03/20 04:41:11;;;;;;;25.90;18.40;;;;;;;9.38;55.84;99927.39;104229;1266;69863;-72
2023/03/20 04:43:42;;;;;;;26.30;18.60;;;;;;;9.36;56.06;99927.09;104276;1260;73274;-72
2023/03/20 04:46:10;;;;;;;23.10;16.20;;;;;;;9.41;56.37;99925.70;104185;1274;60879;-73
2023/03/20 04:48:40;;;;;;;26.70;19.10;;;;;;;9.46;56.42;99926.92;104640;1258;60834;-73
2023/03/20 04:51:09;;;;;;;26.00;18.60;;;;;;;9.51;55.80;99929.57;104579;1262;73254;-73
2023/03/20 04:53:48;;;;;;;24.00;19.10;;;;;;;9.57;57.48;99925.01;104682;1254;70359;-72
2023/03/20 04:56:17;;;;;;;22.20;17.50;;;;;;;9.64;56.94;99923.38;104642;1254;72728;-72
2023/03/20 04:58:47;;;;;;;24.10;16.50;;;;;;;9.65;56.82;99923.13;104609;1263;60889;-71
2023/03/20 05:01:18;;;;;;;25.20;17.60;;;;;;;9.70;57.50;99919.98;104732;1270;60966;-71
2023/03/20 05:03:47;;;;;;;23.10;17.00;;;;;;;9.76;56.86;99923.63;104648;1264;73271;-70
2023/03/20 05:06:16;;;;;;;24.70;17.10;;;;;;;9.83;58.17;99925.67;104725;1257;69833;-69
2023/03/20 05:08:45;;;;;;;22.00;16.90;;;;;;;9.91;58.28;99921.17;104513;1270;72868;-68
2023/03/20 05:11:15;;;;;;;22.80;17.50;;;;;;;9.99;58.47;99924.23;104553;1254;60748;-69
2023/03/20 05:14:05;;;;;;;22.60;17.00;;;;;;;10.07;58.44;99920.98;104642;1263;60862;-69
2023/03/20 05:16:49;;;;;;;22.70;17.40;;;;;;;10.15;58.92;99912.97;104525;1255;73289;-69
2023/03/20 05:19:34;;;;;;;23.90;16.90;;;;;;;10.24;61.14;99912.64;104626;1255;70445;-72
2023/03/20 05:22:18;;;;;;;23.50;17.30;;;;;;;10.34;62.30;99915.27;104696;1258;72918;-68
2023/03/20 05:25:10;;;;;;;23.40;16.90;;;;;;;10.47;62.56;99912.16;108536;1253;59218;-72
2023/03/20 05:27:47;;;;;;;;;;;;;;;10.60;62.21;99909.72;107797;1257;60337;-72
2023/03/20 05:30:42;;;;;;;23.70;17.20;;;;;;;10.74;63.70;99908.82;104953;1256;73211;-70
2023/03/20 05:33:42;;;;;;;25.20;18.30;;;;;;;10.86;63.45;99914.48;104489;1257;70270;-71
2023/03/20 05:36:29;;;;;;;25.80;17.90;;;;;;;10.96;63.02;99914.10;104746;1258;73182;-71
2023/03/20 05:39:18;;;;;;;25.00;19.10;;;;;;;11.07;62.52;99912.07;104693;1257;60873;-70
2023/03/20 05:41:52;;;;;;;30.30;20.00;;;;;;;11.17;62.35;99912.02;104642;1265;60939;-71
2023/03/20 05:44:38;;;;;;;25.60;19.40;;;;;;;11.29;62.20;99916.45;104679;1257;73099;-70
2023/03/20 05:47:37;;;;;;;27.10;19.90;;;;;;;11.35;61.65;99917.80;104263;1254;70144;-71
2023/03/20 05:50:44;;;;;;;28.40;20.00;;;;;;;11.42;61.42;99920.81;104632;1260;71565;-71
2023/03/20 05:53:37;;;;;;;26.50;19.40;;;;;;;11.52;61.20;99920.39;104708;1259;60887;-69
2023/03/20 05:56:16;;;;;;;25.90;20.30;;;;;;;11.60;61.00;99919.02;104579;1261;60778;-66
2023/03/20 05:59:07;;;;;;;27.20;19.30;;;;;;;11.69;61.23;99923.73;104577;1270;72990;-70
2023/03/20 06:02:11;;;;;;;25.20;19.00;;;;;;;11.79;60.38;99929.46;104590;1257;70113;-67
2023/03/20 06:04:43;;;;;;;25.70;19.80;;;;;;;11.83;59.17;99930.51;104603;1269;73062;-67
2023/03/20 06:07:20;;;;;;;26.50;20.00;;;;;;;11.91;59.03;99932.81;104615;1257;60892;-69
2023/03/20 06:09:58;;;;;;;24.60;18.80;;;;;;;11.98;59.01;99934.61;104507;1275;60821;-68
2023/03/20 06:12:26;;;;;;;22.60;18.10;;;;;;;12.06;58.41;99937.77;104581;1262;73648;-67
2023/03/20 06:14:55;;;;;;;25.00;18.30;;;;;;;12.14;58.22;99937.61;104590;1257;70449;-65
2023/03/20 06:17:26;;;;;;;25.70;18.50;;;;;;;12.19;57.56;99937.74;104725;1257;73211;-68
2023/03/20 06:20:00;;;;;;;27.10;18.20;;;;;;;12.29;57.98;99934.14;104718;1254;60842;-66
2023/03/20 06:22:29;;;;;;;23.30;17.90;;;;;;;12.42;57.61;99941.98;104619;1262;60871;-74
2023/03/20 06:24:59;;;;;;;26.00;19.00;;;;;;;12.49;57.10;99942.88;104565;1275;73577;-74
2023/03/20 06:27:35;;;;;;;25.90;18.60;;;;;;;12.56;57.16;99939.59;104768;1254;70192;-74
2023/03/20 06:30:07;;;;;;;23.70;17.80;;;;;;;12.64;57.37;99936.41;104747;1253;73607;-70
2023/03/20 06:32:37;;;;;;;26.50;18.20;;;;;;;12.75;56.76;99938.69;104644;1258;60905;-72
2023/03/20 06:35:08;;;;;;;24.90;19.50;;;;;;;12.83;56.94;99942.20;104614;1276;60568;-73
2023/03/20 06:37:37;;;;;;;24.20;19.10;;;;;;;12.95;57.27;99941.27;104759;1257;73301;-75
2023/03/20 06:40:10;;;;;;;22.60;18.70;;;;;;;13.11;56.66;99935.93;104645;1256;69973;-74
2023/03/20 06:42:39;;;;;;;23.50;17.60;;;;;;;13.22;56.14;99938.02;104597;1257;71773;-75
2023/03/20 06:45:10;;;;;;;24.20;19.00;;;;;;;13.35;55.74;99934.75;104714;1252;60850;-75
2023/03/20 06:48:15;;;;;;;27.30;19.60;;;;;;;13.46;54.89;99932.32;104166;1264;61138;-76
2023/03/20 06:50:45;;;;;;;24.20;18.90;;;;;;;13.52;54.64;99935.20;104602;1261;73794;-73
2023/03/20 06:53:15;;;;;;;25.10;19.10;;;;;;;13.59;54.96;99927.20;104685;1257;68013;-71
2023/03/20 06:55:54;;;;;;;26.50;20.30;;;;;;;13.68;55.26;99922.73;104658;1255;72339;-72
2023/03/20 06:58:23;;;;;;;25.00;19.00;;;;;;;13.75;55.19;99920.11;104622;1252;61262;-71
2023/03/20 07:00:53;;;;;;;27.10;18.70;;;;;;;13.88;54.29;99922.41;104649;1254;60771;-72
2023/03/20 07:03:22;;;;;;;27.20;18.80;;;;;;;13.95;54.19;99922.55;104790;1253;72074;-72
2023/03/20 07:05:51;;;;;;;26.60;18.80;;;;;;;14.02;53.82;99922.02;104794;1253;69782;-73
2023/03/20 07:08:20;;;;;;;26.60;19.10;;;;;;;14.09;53.90;99920.44;104617;1260;72138;-73
2023/03/20 07:10:50;;;;;;;24.10;18.80;;;;;;;14.21;53.91;99919.06;104837;1254;60792;-68
2023/03/20 07:13:19;;;;;;;28.30;18.80;;;;;;;14.35;53.26;99915.52;104806;1257;60780;-69
2023/03/20 07:16:06;;;;;;;23.50;18.20;;;;;;;14.52;52.88;99906.32;104858;1257;73738;-71
2023/03/20 07:18:38;;;;;;;23.50;17.10;;;;;;;14.69;52.62;99907.50;104871;1263;70124;-71
2023/03/20 07:21:08;;;;;;;23.30;16.40;;;;;;;14.86;52.27;99910.31;104970;1261;72995;-76
2023/03/20 07:23:37;;;;;;;19.10;15.90;;;;;;;15.02;52.26;99909.39;104923;1251;60882;-71
2023/03/20 07:26:06;;;;;;;19.90;16.00;;;;;;;15.13;50.45;99904.71;108328;1251;60800;-69
2023/03/20 07:28:37;;;;;;;18.40;15.50;;;;;;;15.25;49.73;99905.27;108294;1251;73315;-70
2023/03/20 07:31:27;;;;;;;17.50;14.00;;;;;;;15.34;49.63;99905.75;105409;1249;70978;-70
2023/03/20 07:34:09;;;;;;;22.30;14.30;;;;;;;15.50;48.80;99906.98;105388;1257;72877;-70
2023/03/20 07:36:43;;;;;;;18.00;14.60;;;;;;;15.53;47.88;99906.05;105030;1257;60890;-68
2023/03/20 07:39:12;;;;;;;21.10;15.30;;;;;;;15.63;48.18;99906.01;105208;1267;61618;-70
2023/03/20 07:41:45;;;;;;;18.60;14.80;;;;;;;15.69;47.56;99898.44;104827;1251;73890;-67
2023/03/20 07:44:23;;;;;;;23.50;13.80;;;;;;;15.73;46.90;99896.96;104992;1257;67755;-70
2023/03/20 07:46:54;;;;;;;19.00;14.00;;;;;;;15.76;46.93;99894.82;104800;1258;73084;-70
2023/03/20 07:49:23;;;;;;;13.90;11.20;;;;;;;15.80;46.07;99891.08;105019;1251;60997;-69
2023/03/20 07:51:55;;;;;;;13.60;10.90;;;;;;;15.87;44.79;99890.45;104822;1253;60886;-71
2023/03/20 07:54:25;;;;;;;14.20;10.40;;;;;;;15.97;43.99;99887.06;106105;1251;72247;-70
2023/03/20 07:56:53;;;;;;;14.60;9.70;;;;;;;16.03;43.73;99882.06;105082;1254;70560;-70
2023/03/20 07:59:25;;;;;;;15.20;9.80;;;;;;;16.10;43.81;99878.47;105115;1251;71496;-70
2023/03/20 08:01:53;;;;;;;10.50;7.80;;;;;;;16.19;43.08;99874.19;104877;1253;61618;-70
2023/03/20 08:04:29;;;;;;;10.60;7.50;;;;;;;16.31;42.18;99875.17;104746;1259;61640;-68
2023/03/20 08:06:58;;;;;;;8.20;6.70;;;;;;;16.34;41.38;99875.38;104947;1251;73401;-68
2023/03/20 08:09:27;;;;;;;8.40;6.90;;;;;;;16.34;40.96;99871.67;105074;1249;68235;-71
2023/03/20 08:12:01;;;;;;;7.30;6.00;;;;;;;16.43;39.82;99868.61;105033;1264;71690;-69
2023/03/20 08:14:30;;;;;;;10.60;7.00;;;;;;;16.51;40.59;99872.67;105147;1251;61863;-66
2023/03/20 08:16:58;;;;;;;9.50;6.90;;;;;;;16.62;39.99;99876.23;104712;1250;61696;-71
2023/03/20 08:19:42;;;;;;;9.50;6.40;;;;;;;16.74;39.65;99875.30;105982;1250;73828;-70
2023/03/20 08:22:11;;;;;;;8.70;7.80;;;;;;;16.81;40.01;99879.11;106099;1250;68303;-69
2023/03/20 08:24:39;;;;;;;14.10;7.90;;;;;;;16.88;40.63;99878.88;104941;1255;71721;-73
2023/03/20 08:27:09;;;;;;;9.00;7.70;;;;;;;16.97;40.80;99880.73;104836;1254;61683;-70
2023/03/20 08:29:38;;;;;;;10.10;7.90;;;;;;;17.06;39.50;99881.77;104974;1250;61785;-69
2023/03/20 08:32:13;;;;;;;7.30;6.60;;;;;;;17.11;38.35;99880.51;107882;1250;73527;-67
2023/03/20 08:34:42;;;;;;;7.70;6.80;;;;;;;17.15;37.76;99880.44;108822;1250;69068;-71
2023/03/20 08:37:11;;;;;;;7.70;6.70;;;;;;;17.19;37.35;99881.44;108791;1250;72573;-68
2023/03/20 08:39:39;;;;;;;6.70;5.90;;;;;;;17.29;37.29;99879.88;107564;1250;61084;-68
2023/03/20 08:42:08;;;;;;;7.60;6.80;;;;;;;17.38;37.84;99878.21;105027;1254;61745;-68
2023/03/20 08:44:38;;;;;;;7.60;6.80;;;;;;;17.47;37.43;99875.14;104683;1254;73636;-70
2023/03/20 08:47:09;;;;;;;8.20;7.40;;;;;;;17.54;37.45;99866.71;104977;1254;69718;-68
2023/03/20 08:49:37;;;;;;;10.40;7.80;;;;;;;17.55;37.47;99861.29;104763;1251;73753;-68
2023/03/20 08:52:06;;;;;;;9.70;7.90;;;;;;;17.69;37.86;99863.17;105068;1254;61713;-69
2023/03/20 08:54:34;;;;;;;7.80;6.70;;;;;;;17.81;37.00;99867.33;104872;1251;61627;-68
2023/03/20 08:57:11;;;;;;;8.60;6.90;;;;;;;17.87;36.85;99863.34;104965;1250;72312;-69
2023/03/20 08:59:40;;;;;;;9.50;7.10;;;;;;;17.94;37.04;99860.74;104613;1251;70183;-69
2023/03/20 09:02:10;;;;;;;7.80;6.00;;;;;;;18.01;37.41;99859.05;104766;1255;71461;-70
2023/03/20 09:04:39;;;;;;;7.40;6.40;;;;;;;18.14;36.70;99850.88;104932;1251;61640;-71
2023/03/20 09:07:08;;;;;;;7.30;6.60;;;;;;;18.26;37.32;99851.08;105025;1254;61709;-69
2023/03/20 09:09:36;;;;;;;8.00;6.60;;;;;;;18.27;36.43;99844.23;105013;1254;74427;-68
2023/03/20 09:12:06;;;;;;;6.80;6.10;;;;;;;18.23;35.62;99841.71;104745;1250;68827;-69
2023/03/20 09:14:37;;;;;;;6.80;6.10;;;;;;;18.20;35.40;99842.95;104615;1257;72209;-70
2023/03/20 09:17:05;;;;;;;6.40;5.70;;;;;;;18.32;36.37;99840.33;104899;1255;61712;-70
2023/03/20 09:19:38;;;;;;;8.50;6.40;;;;;;;18.47;35.85;99835.34;105357;1254;61742;-72
2023/03/20 09:22:07;;;;;;;7.50;6.30;;;;;;;18.61;35.60;99834.52;104950;1254;73371;-69
2023/03/20 09:24:35;;;;;;;7.00;6.40;;;;;;;18.71;35.12;99832.21;104628;1251;70183;-68
2023/03/20 09:27:06;;;;;;;9.00;6.60;;;;;;;18.85;35.12;99826.57;105321;1249;71403;-68
2023/03/20 09:29:34;;;;;;;7.30;6.40;;;;;;;18.93;35.41;99827.39;108655;1250;59679;-69
2023/03/20 09:32:04;;;;;;;9.70;7.10;;;;;;;18.95;34.50;99824.05;108727;1249;60207;-70
2023/03/20 09:34:32;;;;;;;7.40;6.70;;;;;;;19.00;34.67;99823.15;108640;1250;74414;-69
2023/03/20 09:37:02;;;;;;;8.50;6.50;;;;;;;18.99;34.01;99824.77;106709;1251;69981;-67
2023/03/20 09:39:34;;;;;;;6.20;5.50;;;;;;;18.96;34.03;99822.53;105359;1253;72091;-71
2023/03/20 09:42:31;;;;;;;6.90;5.70;;;;;;;18.98;34.13;99822.90;104651;1259;61576;-70
2023/03/20 09:45:21;;;;;;;6.20;5.60;;;;;;;19.05;33.97;99822.79;105339;1256;61702;-71
2023/03/20 09:48:10;;;;;;;6.30;5.60;;;;;;;19.14;33.81;99819.39;105161;1250;72183;-71
2023/03/20 09:50:47;;;;;;;6.30;5.70;;;;;;;19.09;32.41;99815.00;105055;1254;70789;-74
2023/03/20 09:53:35;;;;;;;6.00;5.20;;;;;;;19.17;32.59;99807.52;104777;1255;71768;-73
2023/03/20 09:56:08;;;;;;;6.10;5.50;;;;;;;19.28;33.07;99799.91;104627;1257;61714;-70
2023/03/20 09:58:37;;;;;;;5.50;4.80;;;;;;;19.38;33.64;99795.73;104889;1250;61694;-72
2023/03/20 10:01:06;;;;;;;5.40;4.90;;;;;;;19.49;33.27;99787.95;105091;1251;74018;-72
2023/03/20 10:03:49;;;;;;;5.30;4.80;;;;;;;19.57;32.33;99790.58;104810;1250;70141;-70
2023/03/20 10:06:18;;;;;;;6.30;5.50;;;;;;;19.58;31.99;99789.54;104798;1256;73596;-71
2023/03/20 10:08:46;;;;;;;6.10;5.30;;;;;;;19.49;32.20;99783.34;105186;1251;61684;-71
2023/03/20 10:11:17;;;;;;;6.10;5.30;;;;;;;19.54;32.86;99784.77;104995;1251;61601;-70
2023/03/20 10:13:59;;;;;;;8.70;5.40;;;;;;;19.66;32.76;99783.29;105126;1250;74325;-70
2023/03/20 10:16:43;;;;;;;8.20;6.90;;;;;;;19.80;32.10;99782.40;104969;1251;69191;-72
2023/03/20 10:19:16;;;;;;;6.90;6.20;;;;;;;19.94;31.62;99776.27;104926;1265;72167;-70
2023/03/20 10:21:47;;;;;;;6.90;6.10;;;;;;;19.89;31.56;99774.54;105121;1251;61707;-72
2023/03/20 10:24:18;;;;;;;6.90;6.20;;;;;;;19.93;32.19;99768.38;105358;1257;61830;-71
2023/03/20 10:26:51;;;;;;;6.30;5.70;;;;;;;19.99;32.23;99769.09;105173;1253;74719;-72
2023/03/20 10:29:24;;;;;;;7.90;5.60;;;;;;;20.02;32.31;99760.67;104983;1255;68561;-71
2023/03/20 10:32:17;;;;;;;6.60;5.30;;;;;;;20.12;31.68;99758.45;105141;1253;72086;-71
2023/03/20 10:35:08;;;;;;;6.30;5.60;;;;;;;20.22;30.50;99752.55;105290;1250;61627;-69
2023/03/20 10:38:18;;;;;;;5.40;4.90;;;;;;;20.30;30.94;99750.84;105196;1250;61694;-69
2023/03/20 10:40:47;;;;;;;5.70;5.20;;;;;;;20.45;30.67;99749.45;104725;1257;73651;-70
2023/03/20 10:43:23;;;;;;;6.20;5.50;;;;;;;20.50;30.76;99743.45;104905;1253;70057;-69
2023/03/20 10:46:03;;;;;;;8.20;6.10;;;;;;;20.60;30.97;99743.14;104851;1268;71192;-71
2023/03/20 10:48:51;;;;;;;7.20;5.40;;;;;;;20.64;31.10;99739.89;105033;1250;61567;-71
2023/03/20 10:51:21;;;;;;;6.10;5.50;;;;;;;20.56;31.43;99739.02;104682;1263;61659;-71
2023/03/20 10:53:55;;;;;;;6.70;6.00;;;;;;;20.63;31.69;99739.05;105038;1253;73794;-71
2023/03/20 10:56:31;;;;;;;6.40;5.50;;;;;;;20.73;31.69;99739.84;105083;1251;70522;-72
2023/03/20 10:59:05;;;;;;;7.30;6.20;;;;;;;20.70;30.93;99737.04;104856;1250;72079;-72
2023/03/20 11:01:36;;;;;;;6.80;5.80;;;;;;;20.69;31.68;99737.48;104982;1253;61709;-71
2023/03/20 11:04:05;;;;;;;7.10;6.40;;;;;;;20.72;31.56;99725.65;104973;1254;61687;-71
2023/03/20 11:06:39;;;;;;;6.10;5.50;;;;;;;20.76;31.62;99717.45;105537;1250;73234;-70
2023/03/20 11:09:17;;;;;;;6.00;5.40;;;;;;;20.86;30.99;99718.43;105005;1250;69603;-72
2023/03/20 11:11:47;;;;;;;6.10;5.50;;;;;;;20.84;30.67;99713.04;104872;1255;74113;-67
2023/03/20 11:14:21;;;;;;;6.10;5.50;;;;;;;20.80;30.78;99710.51;104935;1254;61713;-69
2023/03/20 11:16:51;;;;;;;6.10;5.50;;;;;;;20.77;30.30;99705.98;104963;1250;61593;-71
2023/03/20 11:19:21;;;;;;;9.10;5.20;;;;;;;20.77;31.11;99697.56;104929;1253;72794;-68
2023/03/20 11:21:55;;;;;;;5.50;4.70;;;;;;;20.85;30.98;99691.02;105046;1249;68041;-68
2023/03/20 11:24:36;;;;;;;7.40;5.10;;;;;;;20.94;31.11;99686.92;104673;1267;73310;-69
2023/03/20 11:27:28;;;;;;;5.20;4.50;;;;;;;21.04;30.98;99681.27;105324;1249;61980;-68
2023/03/20 11:30:01;;;;;;;5.90;4.50;;;;;;;21.23;31.09;99682.81;108458;1249;60895;-70
2023/03/20 11:32:40;;;;;;;4.90;4.40;;;;;;;21.26;29.73;99680.64;105325;1250;73612;-67
2023/03/20 11:35:18;;;;;;;5.10;4.60;;;;;;;21.24;29.99;99674.02;105105;1250;69275;-67
2023/03/20 11:37:49;;;;;;;7.50;4.50;;;;;;;21.26;30.39;99678.64;105156;1249;71505;-68
2023/03/20 11:40:22;;;;;;;7.10;4.90;;;;;;;21.24;30.73;99680.27;105418;1258;61583;-68
2023/03/20 11:42:53;;;;;;;5.60;5.10;;;;;;;21.23;30.56;99678.39;105264;1251;61705;-68
2023/03/20 11:45:21;;;;;;;6.00;5.30;;;;;;;21.15;30.16;99676.70;105176;1249;74785;-65
2023/03/20 11:47:55;;;;;;;4.90;4.50;;;;;;;21.17;30.03;99671.08;105185;1250;69204;-63
2023/03/20 11:50:33;;;;;;;6.30;4.70;;;;;;;21.22;30.04;99670.80;105136;1250;72898;-65
2023/03/20 11:53:16;;;;;;;7.60;4.30;;;;;;;21.34;30.58;99666.55;104946;1265;61589;-65
2023/03/20 11:55:55;;;;;;;5.10;4.60;;;;;;;21.52;30.46;99669.23;104717;1254;61671;-63
2023/03/20 11:58:24;;;;;;;5.00;4.30;;;;;;;21.55;30.05;99667.44;105069;1254;74377;-65